Timeline UpdatesTrip UpdatesNews PostsPvt PostsTravel TipsAdmin PostsConv PostsFollowed PostsChat RequestsBlog PostsPNR Posts

Disclaimer
Search
 
 
Tue Sep 30, 2014 15:21:56 ISTHomeTrainsΣChainsAtlasPNRForumGalleryNewsFAQTripsMembersLoginFeedback
No Recent News for this Train
Other Trains in the News **new
Latest...
Renumbered as 22647 and arrival time at TVC changed to 17.15 wef 16/7/14
Mon Jun 30, 2014 (11:17AM)
⇐ Return Journey: Train# 22648

16327⇒22647/Korba - Trivandram Central SF Express

Time-Table HAS CHANGED.
Sep 02 (12:04AM)
Change Departure Station:
Change Arrival Station:
Post a Train Travel TipPost a Train Travel Tip **new
Post a Comment/Question/Picture/VideoPost a Comment/Question/Picture/Video
Pantry/Catering
✓ Pantry Car Avbl
✓ Catering Avbl
Loco/Rake Reversals
SRR/Shoranur Junction (7); MAS/Chennai Central (11);
RSA - Rake Sharing
22641/22642)<-->(22645/22646)<-->(22647/22648) <--> (12643/2644) ; Entry# 1149704
Rake/Coach Composition
Loco ,SLR, UR, UR, B2, B1,A1, S11, S10, S9-S8, S7,PC, S6, S5, S4, S3, S2, S1, UR, UR, SLR; SLR-2;UR-4;SL-11;3AC-2;2AC-1;
Loco
#WAP 4 ED Shed ,Author-Avinash Raj Trip #1438
News    PNR    Forum    Time-Table    Availability    Fare Chart    Map    Arr/Dep History    Trips    Gallery    ΣChains    X/O    Timeline    
Travel Time: 0h 45m    0 halts    Distance: 50 km    Avg Speed: 66 km/hr
Type: SuperFast
Zone: SR/Southern
Departs @ 06:50 (Avg 24m late)
Platform# 1
 M   F 
Tiruppur/TUP 
Arrives @ 07:35 (Avg 21m late)
Platform# 2
 M   F 
Coimbatore Main Junction/CBE 

0 halts. 7 intermediate Stations between Tiruppur and Coimbatore Main Junction

Show ALL intermediate Stations  Show Old Time-Table

#CodeStation NameX/OArrivesAvgDepartsAvgHaltPFDay#KmSpeedElevZoneAddress
1KRBAKorba (3)  -19:40+121-2037.960293mSECRKorba, Chhattisgarh
2CPHChampa Junction (3)X  20:17+920:19+92m--1-2001.072264mSECRNational Highway 200 (07819-245767), Chhattisgarh
3NIANaila  20:31 20:28+920:33 20:30+92m--1-1990.160273mSECRJanjgir, Chhattisgarh
4AKTAkaltara (4)  20:45+720:47+82m--1-1975.243284mSECRDist. Janjgir Champa, Chhattisgarh
5BSPBilaspur Junction (8)X  21:25-521:35+710m31-1948.077271mSECRBilaspur, Chhattisgarh
6BYTBhatapara (4)  22:11+1222:13+132m--1-1901.868270mSECRBanjari Road, Chhattisgarh
7RRaipur Junction (6)O  23:10+1423:15+175m21-1837.540297mSECRRaipur, Chhattisgarh
8DURGDurg Junction (6)  00:10+500:30+120m12-1800.687299mSECRPh: 91-788-2322059, Chhattisgarh
9RJNRaj Nandgaon (3)  00:51+1500:53+152m22-1770.186313mSECRRajnandgaon, Chhattisgarh
10DGGDongargarh (2)  01:15+2401:17+252m--2-1738.667 SECRDongargarh, Chhattisgarh
11GGondia Junction (7)  02:23+1802:25+192m--2-1665.396316mSECRGondia 441601, Maharashtra
12TMRTumsar Road (5)X  02:56+2402:58+242m--2-1615.772267mSECRDistt. Bhandara, Maharashtra
13BRDBhandara Road (3)  03:13+2303:15+232m--2-1597.747266mSECRState Highway 252 Bhandara District, Maharashtra
14NGPNagpur Junction (8)X  04:35+804:45+1210m--2-1535.478314mCRNagpur 440001, Maharashtra
15SEGMSewagram Junction (5)  05:44+3905:45+421m--2-1459.269279mCRWardha, Maharashtra
16HGTHinganghat (3)X  06:14+4106:15+431m--2-1426.180228mCRHinganghat, Maharashtra
17CDChandrapur Maharashtra (3)O  07:19+3807:22+363m--2-1340.719194mCRChandrapur 442401, Maharashtra
18BPQBalharshah Junction (5)XO  08:05+1708:45+240m--2-1326.9105188mCRBallarpur. Ph : 07172 - 240341, Maharashtra
19SKZRSirpur Kaghaznagar (3)X  09:25+2209:26+241m22-1257.162181mSCRAdilabad Dist., Telangana
20BPABellampalli (3)  10:03+1910:04+191m22-1218.779205mSCRTel:.08735 223298, Telangana
21MCIManchiryal (3)  10:19+2510:20+271m22-1198.892159mSCRAdilabad Dist., Telangana
22RDMRamagundam (3)X  10:29+3710:30+381m22-1185.165170mSCRKarimnagar Dist. Ph : 08728 - 255237, Telangana
23WLWarangal (3)  12:03+3612:05+382m12-1083.971271mSCRWarangal., Telangana
24KMTKhammam (2)X  13:36+1813:37+191m12-976.345118mSCRKhammam 507001, Telangana
25BZAVijayawada Junction (10)X  15:50+916:05+1015m52-876.06524mSCRVijayawada 520001, Andhra Pradesh
26TELTenali Junction (5)  16:34+1916:35+221m32-844.78016mSCRTel: 08644-227834, Andhra Pradesh
27CLXChirala (4)O  17:18+3017:19+321m--2-787.1678mSCRChirala, Andhra Pradesh
28OGLOngole (3)O  18:03+2818:04+301m32-737.79312mSCROngole, Andhra Pradesh
29NLRNellore (4)XO  19:19+619:20+61m32-620.92521mSCRNellore, Andhra Pradesh
30GDRGudur Junction (3)  20:53+620:55+62m12-582.55719mSCRGudur, Andhra Pradesh
31MASChennai Central (11)X23:20+1023:45+1425m62-445.1659mSRChennai 600003, Tamil Nadu
32KPDKatpadi Junction (5)X  01:45+1301:50+115m13-315.765213mSRVellore 632007, Tamil Nadu
33JTJJolarpettai Junction (5)  03:08+103:10+32m--3-231.876405mSRJolarpettai, Tamil Nadu
34SASalem Junction (6)X  04:40 04:45+2204:45 04:50+235m--3-111.649283mSRSalem, Tamil Nadu
35EDErode Junction (4)O  06:00 06:05+1106:10 06:15+2510m23-50.291175mSRErode ph.no: 0424-2256111, Tamil Nadu
36TUPTiruppur (2)»X  06:48+2406:50+242m130.067305mSRTiruppur. Ph:0421-2200450, Tamil Nadu
37CBECoimbatore Main Junction (6)•  07:35+2107:40+215m2350.541416mSRCoimbatore 641001, Tamil Nadu
38PGTPalakkad Junction (4)XO  09:00+1409:05+145m--3105.810684mSRPalghat Tel: 0491 2555231, Kerala
39OTPOttappalam (2)  09:23+2109:25+212m--3137.51730mSROttapalam, Kerala
40SRRShoranur Junction (7)10:10+110:20+1110m--3150.44726mSRShoranur ph.no 0466-2222913, Kerala
41WKIWadakkanchery (2)X  10:41+1810:42+181m13166.95540mSRWadackanchery, Kerala
42TCRThrissur (4)  11:00+1811:03+193m13183.3686mSRThrissur Tel: 0487 2423150, Kerala
43IJKIrinjalakkuda (2)  11:24+2611:25+261m--3207.15518mSRKalletumkara, Kerala
44CKIChalakkudy (3)X  11:32+2511:33+251m13213.5659mSRPh: 0480- 2701368, Kerala
45AFKAngamaly for Kalady (3)  11:47+3211:48+321m--3228.74616mSRPhone: 0484-2452340, Kerala
46AWYAluva (3)X  12:00+3012:02+302m13237.93112mSRPh: 0484-2624141, Kerala
47ERNErnakulam Town (North) (2)  12:35+1912:40+195m23254.8349mSRTel: 0484 2395198, Kerala
48TRTRThrippunithura (2)  12:57+2512:58+251m--3264.4535mSRErnakulam, Kerala
49KTYMKottayam (3)X  13:55+2714:00+295m--3314.76415mSRTel: 0481 2563535, Kerala
50TRVLTiruvalla (2)  14:24+3414:26+352m--3340.46827mSRPh: 0469-2601314, Kerala
51CNGRChengannur (3)X  14:34+4314:36+432m13349.5756mSRPh: 0479-2452340, Kerala
52MVLKMavelikara (3)X  14:46+4414:48+442m13362.05813mSRMavelikkara Ph: 0479-2302249, Kerala
53KYJKayamkulam Junction (5)  14:56+3914:58+392m--3369.75211mSRAlappuzha Ph;0479-2442042, Kerala
54QLNKollam Junction (6)X  15:45+3215:50+305m13410.54616mSRKollam 0474-2746194, Kerala
55TVCTrivandrum Central (5)  17:15+1:03-13475.1-12mSRThiruvananthapuram 695001, Kerala
Scroll to Top
Scroll to Bottom